createdAt,value
2023-05-13T00:06:38.426Z,2.63
2023-05-13T00:09:07.786Z,2.50
2023-05-13T00:11:36.997Z,4.77
2023-05-13T00:14:06.788Z,3.40
2023-05-13T00:16:35.819Z,3.50
2023-05-13T00:19:05.251Z,3.00
2023-05-13T00:21:34.373Z,2.87
2023-05-13T00:24:05.726Z,2.50
2023-05-13T00:26:34.594Z,2.70
2023-05-13T00:29:03.710Z,2.87
2023-05-13T00:31:32.740Z,2.90
2023-05-13T00:34:02.209Z,2.80
2023-05-13T00:36:31.419Z,3.33
2023-05-13T00:39:00.582Z,3.00
2023-05-13T00:41:31.233Z,2.73
2023-05-13T00:48:18.467Z,2.67
2023-05-13T00:50:47.570Z,2.47
2023-05-13T00:57:36.866Z,3.20
2023-05-13T01:00:07.679Z,3.07
2023-05-13T01:07:11.022Z,3.83
2023-05-13T01:09:46.658Z,3.00
2023-05-13T01:12:32.342Z,3.30
2023-05-13T01:15:07.379Z,3.50
2023-05-13T01:21:30.657Z,2.73
2023-05-13T01:28:17.287Z,3.20
2023-05-13T01:30:47.512Z,3.33
2023-05-13T01:33:17.617Z,3.00
2023-05-13T01:35:47.542Z,3.33
2023-05-13T01:42:36.724Z,3.57
2023-05-13T01:45:06.536Z,3.80
2023-05-13T01:47:36.073Z,3.20
2023-05-13T01:50:05.542Z,3.10
2023-05-13T01:52:34.640Z,4.70
2023-05-13T01:59:23.936Z,2.70
2023-05-13T02:01:52.963Z,3.27
2023-05-13T02:08:41.599Z,2.97
2023-05-13T02:11:11.203Z,4.30
2023-05-13T02:13:40.402Z,3.00
2023-05-13T02:16:12.808Z,3.00
2023-05-13T02:18:42.317Z,3.57
2023-05-13T02:21:11.896Z,2.50
2023-05-13T02:23:41.296Z,3.20
2023-05-13T02:26:10.377Z,3.20
2023-05-13T02:28:39.576Z,3.20
2023-05-13T02:31:10.394Z,2.90
2023-05-13T02:33:39.605Z,4.57
2023-05-13T02:36:08.906Z,3.47
2023-05-13T02:38:40.042Z,4.00
2023-05-13T02:41:08.938Z,3.30
2023-05-13T02:43:38.338Z,3.23
2023-05-13T02:50:27.325Z,3.40
2023-05-13T02:52:56.526Z,3.07
2023-05-13T02:59:37.832Z,2.57
2023-05-13T03:02:07.611Z,3.40
2023-05-13T03:08:50.283Z,3.23
2023-05-13T03:15:38.704Z,3.93
2023-05-13T03:18:08.250Z,4.27
2023-05-13T03:24:51.198Z,3.67
2023-05-13T03:27:21.215Z,5.30
2023-05-13T03:32:51.771Z,3.60
2023-05-13T03:39:32.458Z,2.57
2023-05-13T03:46:21.579Z,4.00
2023-05-13T03:48:51.046Z,3.27
2023-05-13T03:55:38.388Z,5.10
2023-05-13T03:58:14.035Z,4.00
2023-05-13T04:05:02.944Z,4.07
2023-05-13T04:07:32.230Z,5.20
2023-05-13T04:10:01.204Z,4.23
2023-05-13T04:16:36.806Z,4.60
2023-05-13T04:19:06.305Z,3.30
2023-05-13T04:25:55.370Z,3.47
2023-05-13T04:28:24.258Z,4.63
2023-05-13T04:30:54.906Z,4.90
2023-05-13T04:33:23.777Z,3.77
2023-05-13T04:35:52.866Z,4.00
2023-05-13T04:38:21.970Z,4.47
2023-05-13T04:40:51.669Z,4.17
2023-05-13T04:43:23.426Z,5.10
2023-05-13T04:45:52.753Z,3.17
2023-05-13T04:48:21.919Z,3.67
2023-05-13T04:50:52.962Z,3.80
2023-05-13T04:53:22.161Z,4.10
2023-05-13T04:55:52.889Z,4.37
2023-05-13T04:58:23.930Z,4.40
2023-05-13T05:00:53.534Z,3.40
2023-05-13T05:03:22.861Z,3.37
2023-05-13T05:05:52.235Z,4.13
2023-05-13T05:12:39.887Z,3.70
2023-05-13T05:15:16.203Z,4.00
2023-05-13T05:22:03.499Z,4.30
2023-05-13T05:24:32.695Z,5.60
2023-05-13T05:31:28.043Z,5.13
2023-05-13T05:42:59.942Z,4.90
2023-05-13T05:45:29.559Z,4.30
2023-05-13T05:52:13.322Z,3.70
2023-05-13T05:54:45.172Z,3.40
2023-05-13T05:57:14.471Z,3.63
2023-05-13T05:59:43.675Z,3.33
2023-05-13T06:02:12.877Z,3.63
2023-05-13T06:04:43.125Z,3.27
2023-05-13T06:07:15.273Z,3.47
2023-05-13T06:09:45.575Z,3.37
2023-05-13T06:12:14.766Z,4.00
2023-05-13T06:18:56.532Z,4.47
2023-05-13T06:21:26.088Z,5.00
2023-05-13T06:28:15.292Z,5.27
2023-05-13T06:30:46.420Z,5.23
2023-05-13T06:37:28.093Z,5.03
2023-05-13T06:39:57.233Z,5.57
2023-05-13T06:42:26.511Z,6.37
2023-05-13T06:44:56.955Z,25.73
2023-05-13T06:47:26.913Z,7.00
2023-05-13T06:54:09.611Z,7.63
2023-05-13T06:56:38.809Z,6.87
2023-05-13T07:03:28.419Z,7.60
2023-05-13T07:05:57.802Z,5.70
2023-05-13T07:12:45.450Z,6.37
2023-05-13T07:19:28.498Z,7.23
2023-05-13T07:21:58.353Z,6.77
2023-05-13T07:28:46.365Z,7.00
2023-05-13T07:31:16.195Z,8.43
2023-05-13T07:33:45.385Z,7.40
2023-05-13T07:36:15.904Z,7.77
2023-05-13T07:38:45.715Z,8.47
2023-05-13T07:41:15.014Z,9.80
2023-05-13T07:43:44.827Z,16.70
2023-05-13T07:46:13.921Z,8.20
2023-05-13T07:48:43.411Z,8.67
2023-05-13T07:51:12.624Z,7.50
2023-05-13T07:53:43.354Z,8.77
2023-05-13T07:56:12.245Z,8.80
2023-05-13T07:58:41.863Z,17.00
2023-05-13T08:01:10.849Z,7.53
2023-05-13T08:03:40.232Z,7.50
2023-05-13T08:10:23.626Z,8.20
2023-05-13T08:12:58.125Z,6.60
2023-05-13T08:19:46.893Z,7.37
2023-05-13T08:22:16.097Z,6.10
2023-05-13T08:29:05.176Z,6.33
2023-05-13T08:35:53.755Z,6.60
2023-05-13T08:38:23.772Z,7.20
2023-05-13T08:45:22.063Z,8.40
2023-05-13T08:47:53.692Z,8.33
2023-05-13T08:54:36.580Z,11.30
2023-05-13T08:57:06.898Z,11.07
2023-05-13T08:59:36.411Z,13.17
2023-05-13T09:02:07.449Z,12.13
2023-05-13T09:04:38.309Z,12.63
2023-05-13T09:11:26.556Z,12.43
2023-05-13T09:14:02.737Z,11.43
2023-05-13T09:20:50.663Z,10.90
2023-05-13T09:23:20.676Z,52.27
2023-05-13T09:30:14.363Z,12.27
2023-05-13T09:32:43.792Z,11.90
2023-05-13T09:35:17.083Z,12.37
2023-05-13T09:37:51.098Z,12.80
2023-05-13T09:40:20.845Z,16.70
2023-05-13T09:42:50.797Z,11.67
2023-05-13T09:45:20.261Z,11.40
2023-05-13T09:47:52.702Z,11.83
2023-05-13T09:50:22.267Z,11.70
2023-05-13T09:52:53.107Z,11.77
2023-05-13T09:55:22.512Z,13.43
2023-05-13T09:57:51.405Z,12.87
2023-05-13T10:00:31.646Z,10.77
2023-05-13T10:03:02.520Z,13.50
2023-05-13T10:05:32.607Z,13.63
2023-05-13T10:08:03.855Z,16.63
2023-05-13T10:10:34.997Z,14.47
2023-05-13T10:17:16.818Z,14.60
2023-05-13T10:19:46.114Z,18.63
2023-05-13T10:26:28.856Z,15.77
2023-05-13T10:29:00.817Z,16.60
2023-05-13T10:34:34.346Z,14.67
2023-05-13T10:41:54.853Z,15.30
2023-05-13T10:44:24.862Z,14.30
2023-05-13T10:46:54.266Z,14.40
2023-05-13T10:49:25.215Z,15.63
2023-05-13T10:51:54.499Z,14.50
2023-05-13T10:54:25.045Z,16.70
2023-05-13T10:57:00.167Z,16.90
2023-05-13T10:59:30.898Z,14.77
2023-05-13T11:02:03.886Z,17.70
2023-05-13T11:04:33.489Z,13.60
2023-05-13T11:07:17.532Z,12.93
2023-05-13T11:09:52.874Z,13.00
2023-05-13T11:16:26.285Z,13.50
2023-05-13T11:23:06.659Z,16.70
2023-05-13T11:25:35.982Z,17.87
2023-05-13T11:32:18.622Z,14.27
2023-05-13T11:43:42.952Z,25.43
2023-05-13T11:46:12.290Z,21.57
2023-05-13T11:53:01.556Z,23.00
2023-05-13T11:55:32.077Z,23.03
2023-05-13T11:58:01.472Z,20.60
2023-05-13T12:00:31.909Z,22.33
2023-05-13T12:03:01.946Z,18.50
2023-05-13T12:05:31.128Z,13.50
2023-05-13T12:08:01.537Z,13.80
2023-05-13T12:10:30.939Z,13.03
2023-05-13T12:13:00.440Z,12.57
2023-05-13T12:15:30.253Z,11.00
2023-05-13T12:17:59.897Z,11.53
2023-05-13T12:24:49.468Z,21.03
2023-05-13T12:27:18.759Z,13.20
2023-05-13T12:34:06.716Z,13.80
2023-05-13T12:36:39.384Z,13.60
2023-05-13T12:43:22.643Z,9.27
2023-05-13T12:50:18.472Z,11.57
2023-05-13T12:52:48.092Z,12.30
2023-05-13T12:59:31.895Z,13.07
2023-05-13T13:02:01.373Z,11.50
2023-05-13T13:08:43.080Z,12.27
2023-05-13T13:15:38.824Z,14.60
2023-05-13T13:18:08.250Z,15.77
2023-05-13T13:24:49.426Z,11.10
2023-05-13T13:27:19.027Z,11.23
2023-05-13T13:29:48.227Z,11.43
2023-05-13T13:36:38.759Z,9.77
2023-05-13T13:39:07.955Z,10.67
2023-05-13T13:45:56.187Z,12.00
2023-05-13T13:48:25.506Z,11.90
2023-05-13T13:55:21.453Z,13.00
2023-05-13T13:57:50.765Z,12.03
2023-05-13T14:03:28.008Z,14.40
2023-05-13T14:10:23.507Z,15.67
2023-05-13T14:12:54.031Z,14.00
2023-05-13T14:15:24.656Z,16.93
2023-05-13T14:17:54.171Z,16.57
2023-05-13T14:20:23.851Z,14.77
2023-05-13T14:22:53.686Z,15.37
2023-05-13T14:25:23.912Z,14.47
2023-05-13T14:27:53.199Z,13.70
2023-05-13T14:30:23.581Z,14.90
2023-05-13T14:37:11.173Z,14.10
2023-05-13T14:39:40.267Z,14.47
2023-05-13T14:46:23.452Z,14.03
2023-05-13T14:48:54.565Z,16.40
2023-05-13T14:55:42.620Z,14.90
2023-05-13T15:02:25.525Z,19.20
2023-05-13T15:04:54.760Z,14.27
2023-05-13T15:11:42.340Z,13.57
2023-05-13T15:14:12.527Z,16.10
2023-05-13T15:21:07.534Z,12.43
2023-05-13T15:27:55.529Z,16.23
2023-05-13T15:30:24.736Z,12.17
2023-05-13T15:37:14.408Z,12.10
2023-05-13T15:39:43.622Z,11.73
2023-05-13T15:46:33.840Z,12.70
2023-05-13T15:53:17.589Z,12.83
2023-05-13T15:55:46.683Z,12.67
2023-05-13T16:09:44.309Z,13.27
2023-05-13T16:12:13.720Z,15.20
2023-05-13T16:19:03.988Z,13.20
2023-05-13T16:21:33.121Z,15.10
2023-05-13T16:28:23.744Z,25.90
2023-05-13T16:30:54.807Z,13.10
2023-05-13T16:37:43.264Z,19.13
2023-05-13T16:40:14.094Z,16.60
2023-05-13T16:42:43.189Z,18.73
2023-05-13T16:45:14.440Z,14.33
2023-05-13T16:47:43.962Z,18.53
2023-05-13T16:54:26.058Z,16.50
2023-05-13T16:56:55.048Z,18.33
2023-05-13T17:03:31.821Z,14.30
2023-05-13T17:06:01.058Z,12.60
2023-05-13T17:08:30.225Z,11.53
2023-05-13T17:10:59.555Z,15.57
2023-05-13T17:13:28.411Z,15.77
2023-05-13T17:15:57.637Z,14.30
2023-05-13T17:18:27.156Z,18.93
2023-05-13T17:20:57.866Z,13.43
2023-05-13T17:23:26.961Z,14.63
2023-05-13T17:25:56.353Z,13.60
2023-05-13T17:28:25.561Z,15.90
2023-05-13T17:30:55.577Z,14.50
2023-05-13T17:33:24.769Z,13.90
2023-05-13T17:35:54.065Z,13.37
2023-05-13T17:38:25.011Z,14.83
2023-05-13T17:40:54.101Z,13.33
2023-05-13T17:43:22.993Z,12.37
2023-05-13T17:50:11.890Z,11.33
2023-05-13T17:52:41.948Z,15.33
2023-05-13T17:59:30.878Z,18.53
2023-05-13T18:02:00.148Z,14.77
2023-05-13T18:08:54.996Z,13.73
2023-05-13T18:15:37.735Z,14.97
2023-05-13T18:18:07.060Z,14.50
2023-05-13T18:24:48.228Z,13.53
2023-05-13T18:27:17.220Z,13.83
2023-05-13T18:29:46.422Z,16.07
2023-05-13T18:32:16.942Z,16.90
2023-05-13T18:34:46.040Z,15.63
2023-05-13T18:37:15.437Z,24.10
2023-05-13T18:39:46.053Z,14.30
2023-05-13T18:42:15.268Z,17.33
2023-05-13T18:44:47.029Z,15.43
2023-05-13T18:51:29.662Z,19.67
2023-05-13T18:53:59.163Z,17.30
2023-05-13T19:00:40.474Z,17.40
2023-05-13T19:03:10.441Z,16.97
2023-05-13T19:08:47.991Z,15.83
2023-05-13T19:15:29.530Z,17.07
2023-05-13T19:17:58.763Z,15.10
2023-05-13T19:20:27.692Z,16.80
2023-05-13T19:22:56.997Z,14.93
2023-05-13T19:25:27.629Z,23.23
2023-05-13T19:27:56.750Z,11.50
2023-05-13T19:30:25.737Z,10.37
2023-05-13T19:32:55.030Z,10.00
2023-05-13T19:35:24.101Z,9.90
2023-05-13T19:46:55.843Z,9.97
2023-05-13T19:49:25.112Z,10.10
2023-05-13T19:56:07.027Z,9.20
2023-05-13T19:58:36.925Z,8.93
2023-05-13T20:01:06.134Z,10.33
2023-05-13T20:03:36.869Z,9.63
2023-05-13T20:06:05.860Z,8.77
2023-05-13T20:08:36.002Z,9.07
2023-05-13T20:11:05.097Z,8.93
2023-05-13T20:17:52.406Z,8.70
2023-05-13T20:20:23.545Z,7.77
2023-05-13T20:27:05.381Z,5.93
2023-05-13T20:29:36.827Z,7.80
2023-05-13T20:32:06.814Z,7.20
2023-05-13T20:34:36.656Z,7.27
2023-05-13T20:37:07.286Z,6.83
2023-05-13T20:39:36.405Z,6.17
2023-05-13T20:42:05.478Z,6.47
2023-05-13T20:44:34.466Z,7.03
2023-05-13T20:47:03.663Z,7.10
2023-05-13T20:53:47.840Z,6.73
2023-05-13T20:56:17.850Z,7.30
2023-05-13T21:03:05.668Z,7.63
2023-05-13T21:05:34.701Z,8.13
2023-05-13T21:12:25.740Z,8.60
2023-05-13T21:19:08.687Z,8.27
2023-05-13T21:21:38.395Z,7.63
2023-05-13T21:28:27.574Z,11.07
2023-05-13T21:30:58.355Z,8.20
2023-05-13T21:37:56.178Z,10.50
2023-05-13T21:49:36.614Z,10.40
2023-05-13T21:52:06.218Z,11.20
2023-05-13T21:58:53.485Z,11.77
2023-05-13T22:01:22.566Z,11.33
2023-05-13T22:03:51.651Z,10.83
2023-05-13T22:06:22.595Z,10.03
2023-05-13T22:08:51.779Z,9.97
2023-05-13T22:11:21.489Z,10.63
2023-05-13T22:13:50.721Z,12.90
2023-05-13T22:16:20.121Z,10.97
2023-05-13T22:18:51.202Z,14.60
2023-05-13T22:21:22.081Z,12.57
2023-05-13T22:23:51.057Z,11.07
2023-05-13T22:26:20.357Z,12.30
2023-05-13T22:28:50.783Z,12.40
2023-05-13T22:35:44.273Z,11.50
2023-05-13T22:38:14.828Z,11.00
2023-05-13T22:49:20.414Z,13.83
2023-05-13T22:56:10.004Z,12.50
2023-05-13T22:58:39.304Z,13.37
2023-05-13T23:05:34.331Z,15.00
2023-05-13T23:08:03.521Z,14.53
2023-05-13T23:14:45.832Z,14.80
2023-05-13T23:17:15.048Z,14.37
2023-05-13T23:19:44.150Z,14.80
2023-05-13T23:26:31.671Z,24.03
2023-05-13T23:29:01.089Z,16.40
2023-05-13T23:35:44.841Z,15.67
2023-05-13T23:38:14.255Z,18.30
2023-05-13T23:40:43.447Z,16.90
2023-05-13T23:43:12.779Z,29.03
2023-05-13T23:45:42.118Z,13.70
2023-05-13T23:48:11.451Z,15.37
2023-05-13T23:50:42.084Z,15.63
2023-05-13T23:53:17.005Z,25.70
2023-05-13T23:55:46.315Z,18.60
2023-05-13T23:58:16.028Z,16.10
